createdAt,value
2024-03-16T00:00:52.118Z,1.92
2024-03-16T00:03:18.053Z,3.00
2024-03-16T00:05:44.036Z,2.20
2024-03-16T00:08:09.976Z,2.83
2024-03-16T00:10:35.992Z,2.05
2024-03-16T00:13:02.086Z,2.10
2024-03-16T00:15:28.789Z,2.67
2024-03-16T00:17:55.051Z,3.40
2024-03-16T00:20:21.105Z,3.10
2024-03-16T00:22:47.008Z,2.42
2024-03-16T00:25:13.268Z,2.60
2024-03-16T00:27:39.279Z,2.42
2024-03-16T00:30:06.339Z,2.10
2024-03-16T00:32:32.978Z,1.63
2024-03-16T00:34:59.187Z,2.67
2024-03-16T00:37:25.112Z,2.45
2024-03-16T00:39:51.216Z,2.35
2024-03-16T00:42:17.259Z,2.35
2024-03-16T00:44:43.284Z,2.10
2024-03-16T00:47:09.299Z,2.00
2024-03-16T00:49:35.930Z,2.00
2024-03-16T00:52:01.998Z,2.03
2024-03-16T00:54:28.959Z,2.22
2024-03-16T00:56:55.348Z,2.72
2024-03-16T00:59:21.355Z,2.50
2024-03-16T01:01:47.367Z,1.95
2024-03-16T01:04:13.555Z,2.60
2024-03-16T01:06:40.477Z,2.22
2024-03-16T01:09:06.690Z,2.25
2024-03-16T01:11:34.111Z,3.13
2024-03-16T01:14:00.258Z,2.28
2024-03-16T01:16:26.272Z,2.60
2024-03-16T01:18:52.401Z,2.80
2024-03-16T01:21:19.233Z,2.72
2024-03-16T01:23:46.036Z,2.47
2024-03-16T01:26:12.102Z,2.28
2024-03-16T01:28:38.382Z,3.30
2024-03-16T01:31:04.315Z,2.78
2024-03-16T01:33:30.476Z,3.00
2024-03-16T01:35:56.466Z,3.53
2024-03-16T01:38:22.631Z,2.30
2024-03-16T01:40:49.269Z,3.03
2024-03-16T01:43:15.371Z,2.80
2024-03-16T01:45:41.990Z,2.65
2024-03-16T01:48:09.177Z,2.33
2024-03-16T01:50:35.154Z,2.00
2024-03-16T01:53:01.272Z,3.10
2024-03-16T01:55:27.445Z,3.08
2024-03-16T01:57:54.141Z,2.78
2024-03-16T02:00:20.089Z,2.20
2024-03-16T02:02:46.160Z,2.17
2024-03-16T02:05:12.171Z,2.50
2024-03-16T02:07:38.522Z,2.40
2024-03-16T02:10:06.184Z,2.47
2024-03-16T02:12:32.452Z,2.63
2024-03-16T02:14:59.092Z,2.63
2024-03-16T02:17:25.090Z,2.88
2024-03-16T02:19:51.169Z,3.05
2024-03-16T02:22:17.969Z,2.72
2024-03-16T02:24:44.075Z,2.85
2024-03-16T02:27:10.017Z,3.53
2024-03-16T02:29:35.944Z,3.58
2024-03-16T02:32:02.091Z,2.67
2024-03-16T02:34:27.988Z,3.15
2024-03-16T02:36:54.290Z,2.45
2024-03-16T02:39:21.009Z,3.25
2024-03-16T02:41:46.971Z,3.40
2024-03-16T02:44:12.982Z,2.67
2024-03-16T02:46:38.937Z,2.90
2024-03-16T02:49:05.152Z,3.03
2024-03-16T02:51:31.493Z,2.75
2024-03-16T02:53:57.510Z,2.50
2024-03-16T02:56:24.242Z,3.15
2024-03-16T02:58:50.625Z,3.28
2024-03-16T03:01:16.809Z,3.22
2024-03-16T03:03:42.906Z,2.92
2024-03-16T03:06:08.999Z,3.83
2024-03-16T03:08:35.044Z,3.45
2024-03-16T03:11:01.103Z,3.33
2024-03-16T03:13:27.743Z,3.55
2024-03-16T03:15:53.925Z,3.78
2024-03-16T03:18:19.929Z,3.72
2024-03-16T03:20:46.169Z,4.18
2024-03-16T03:23:12.097Z,2.95
2024-03-16T03:25:39.204Z,3.63
2024-03-16T03:28:05.439Z,4.40
2024-03-16T03:30:32.223Z,3.90
2024-03-16T03:32:58.219Z,4.90
2024-03-16T03:35:24.242Z,4.57
2024-03-16T03:37:50.172Z,4.38
2024-03-16T03:40:16.265Z,6.53
2024-03-16T03:42:42.198Z,5.50
2024-03-16T03:45:08.233Z,5.53
2024-03-16T03:47:34.808Z,7.30
2024-03-16T03:50:00.834Z,6.10
2024-03-16T03:52:26.857Z,5.95
2024-03-16T03:54:52.904Z,6.38
2024-03-16T03:57:18.857Z,6.22
2024-03-16T03:59:44.870Z,5.82
2024-03-16T04:02:10.876Z,6.82
2024-03-16T04:04:37.566Z,6.28
2024-03-16T04:07:03.725Z,6.38
2024-03-16T04:09:29.750Z,6.18
2024-03-16T04:11:55.666Z,7.13
2024-03-16T04:14:21.736Z,7.10
2024-03-16T04:16:47.609Z,7.20
2024-03-16T04:19:13.697Z,7.43
2024-03-16T04:21:40.583Z,7.65
2024-03-16T04:24:06.748Z,7.15
2024-03-16T04:26:32.725Z,7.30
2024-03-16T04:28:58.737Z,8.45
2024-03-16T04:31:24.602Z,9.15
2024-03-16T04:33:50.582Z,8.93
2024-03-16T04:36:16.573Z,9.95
2024-03-16T04:38:43.226Z,11.10
2024-03-16T04:41:09.134Z,10.13
2024-03-16T04:43:35.298Z,10.40
2024-03-16T04:46:01.376Z,10.43
2024-03-16T04:48:27.438Z,10.15
2024-03-16T04:50:54.982Z,10.15
2024-03-16T04:53:20.988Z,8.82
2024-03-16T04:55:49.877Z,9.80
2024-03-16T04:58:15.903Z,9.32
2024-03-16T05:00:41.965Z,9.00
2024-03-16T05:03:08.056Z,9.18
2024-03-16T05:05:33.954Z,9.23
2024-03-16T05:07:59.864Z,8.45
2024-03-16T05:10:25.916Z,8.30
2024-03-16T05:12:52.728Z,7.90
2024-03-16T05:15:18.708Z,8.82
2024-03-16T05:17:44.759Z,9.50
2024-03-16T05:20:10.748Z,9.75
2024-03-16T05:22:36.778Z,10.75
2024-03-16T05:25:03.158Z,10.10
2024-03-16T05:27:29.569Z,9.93
2024-03-16T05:29:56.150Z,9.13
2024-03-16T05:32:22.218Z,9.25
2024-03-16T05:34:48.261Z,9.35
2024-03-16T05:37:14.349Z,7.28
2024-03-16T05:39:40.780Z,7.35
2024-03-16T05:42:06.741Z,7.35
2024-03-16T05:44:32.739Z,7.82
2024-03-16T05:46:59.405Z,8.55
2024-03-16T05:49:27.848Z,9.02
2024-03-16T05:51:54.219Z,9.00
2024-03-16T05:54:20.150Z,7.90
2024-03-16T05:56:46.108Z,8.88
2024-03-16T05:59:12.181Z,8.65
2024-03-16T06:01:38.297Z,8.85
2024-03-16T06:04:05.158Z,7.60
2024-03-16T06:06:31.305Z,7.82
2024-03-16T06:08:57.215Z,7.82
2024-03-16T06:11:23.334Z,7.75
2024-03-16T06:13:49.313Z,8.05
2024-03-16T06:16:15.302Z,7.10
2024-03-16T06:18:41.483Z,6.55
2024-03-16T06:21:08.145Z,4.93
2024-03-16T06:23:34.143Z,4.20
2024-03-16T06:26:00.203Z,4.28
2024-03-16T06:28:26.123Z,4.70
2024-03-16T06:30:54.722Z,5.25
2024-03-16T06:33:20.958Z,4.60
2024-03-16T06:35:47.780Z,4.93
2024-03-16T06:38:14.332Z,3.88
2024-03-16T06:40:40.383Z,4.60
2024-03-16T06:43:06.325Z,3.72
2024-03-16T06:45:32.425Z,3.40
2024-03-16T06:47:58.432Z,3.75
2024-03-16T06:50:24.467Z,3.40
2024-03-16T06:52:50.374Z,3.60
2024-03-16T06:55:17.212Z,2.70
2024-03-16T06:57:43.275Z,3.20
2024-03-16T07:00:10.567Z,2.78
2024-03-16T07:02:36.538Z,2.60
2024-03-16T07:05:02.813Z,3.83
2024-03-16T07:07:28.704Z,3.15
2024-03-16T07:09:54.777Z,2.65
2024-03-16T07:12:21.446Z,2.78
2024-03-16T07:14:47.485Z,2.90
2024-03-16T07:17:13.642Z,3.15
2024-03-16T07:19:39.699Z,2.88
2024-03-16T07:22:05.650Z,2.70
2024-03-16T07:24:31.728Z,2.30
2024-03-16T07:26:57.881Z,2.90
2024-03-16T07:29:24.613Z,2.30
2024-03-16T07:31:50.530Z,3.08
2024-03-16T07:34:16.572Z,2.53
2024-03-16T07:36:42.819Z,2.97
2024-03-16T07:39:08.948Z,2.30
2024-03-16T07:41:34.890Z,2.38
2024-03-16T07:44:00.854Z,2.05
2024-03-16T07:46:27.432Z,2.63
2024-03-16T07:48:53.469Z,2.50
2024-03-16T07:51:19.398Z,2.35
2024-03-16T07:53:45.432Z,2.38
2024-03-16T07:56:11.526Z,1.67
2024-03-16T07:58:37.470Z,1.58
2024-03-16T08:01:03.785Z,1.50
2024-03-16T08:03:30.501Z,1.70
2024-03-16T08:05:56.430Z,1.33
2024-03-16T08:08:22.467Z,1.42
2024-03-16T08:10:48.445Z,0.80
2024-03-16T08:13:14.500Z,0.77
2024-03-16T08:15:40.632Z,1.10
2024-03-16T08:18:06.856Z,1.00
2024-03-16T08:20:33.563Z,0.75
2024-03-16T08:22:59.702Z,1.20
2024-03-16T08:25:25.866Z,1.23
2024-03-16T08:27:51.893Z,1.10
2024-03-16T08:30:18.083Z,1.30
2024-03-16T08:32:44.018Z,1.25
2024-03-16T08:35:09.985Z,1.55
2024-03-16T08:37:36.598Z,1.35
2024-03-16T08:40:02.941Z,1.25
2024-03-16T08:42:28.992Z,1.50
2024-03-16T08:44:54.930Z,1.65
2024-03-16T08:47:20.944Z,1.90
2024-03-16T08:49:46.880Z,1.50
2024-03-16T08:52:13.046Z,1.10
2024-03-16T08:54:39.805Z,1.20
2024-03-16T08:57:05.834Z,0.82
2024-03-16T08:59:31.867Z,1.10
2024-03-16T09:01:57.992Z,1.42
2024-03-16T09:04:23.986Z,1.15
2024-03-16T09:06:50.021Z,1.30
2024-03-16T09:09:15.950Z,1.73
2024-03-16T09:11:42.691Z,0.93
2024-03-16T09:14:08.713Z,1.15
2024-03-16T09:16:34.796Z,0.95
2024-03-16T09:19:00.876Z,1.10
2024-03-16T09:21:26.901Z,1.85
2024-03-16T09:23:52.839Z,1.02
2024-03-16T09:26:18.872Z,1.10
2024-03-16T09:28:45.450Z,1.20
2024-03-16T09:31:11.767Z,1.10
2024-03-16T09:33:37.775Z,1.35
2024-03-16T09:36:04.220Z,1.58
2024-03-16T09:38:30.156Z,1.88
2024-03-16T09:40:56.125Z,1.60
2024-03-16T09:43:22.264Z,1.02
2024-03-16T09:45:50.493Z,1.13
2024-03-16T09:48:17.090Z,1.20
2024-03-16T09:50:45.819Z,1.00
2024-03-16T09:53:21.778Z,1.08
2024-03-16T09:55:47.907Z,1.40
2024-03-16T09:58:15.818Z,1.40
2024-03-16T10:00:47.149Z,1.60
2024-03-16T10:03:14.523Z,1.52
2024-03-16T10:05:40.422Z,1.30
2024-03-16T10:08:06.461Z,1.10
2024-03-16T10:10:32.404Z,1.13
2024-03-16T10:13:04.790Z,1.23
2024-03-16T10:17:56.672Z,3.92
2024-03-16T10:20:23.239Z,1.77
2024-03-16T10:22:49.802Z,2.05
2024-03-16T10:25:17.203Z,3.38
2024-03-16T10:27:44.422Z,3.75
2024-03-16T10:30:12.316Z,1.65
2024-03-16T10:32:38.273Z,2.92
2024-03-16T10:35:11.308Z,2.38
2024-03-16T10:37:37.916Z,1.65
2024-03-16T10:40:12.492Z,2.10
2024-03-16T10:42:38.608Z,2.20
2024-03-16T10:45:05.564Z,1.60
2024-03-16T10:47:31.634Z,4.15
2024-03-16T10:49:57.585Z,2.72
2024-03-16T10:52:24.267Z,1.30
2024-03-16T10:54:51.118Z,1.50
2024-03-16T10:57:17.254Z,2.88
2024-03-16T10:59:43.236Z,2.22
2024-03-16T11:02:12.956Z,1.95
2024-03-16T11:04:51.088Z,1.85
2024-03-16T11:07:17.192Z,1.38
2024-03-16T11:09:43.150Z,1.05
2024-03-16T11:12:30.085Z,0.82
2024-03-16T11:15:28.453Z,0.65
2024-03-16T11:17:54.513Z,0.70
2024-03-16T11:20:37.883Z,1.05
2024-03-16T11:23:21.028Z,0.75
2024-03-16T11:25:47.024Z,1.30
2024-03-16T11:28:13.754Z,0.77
2024-03-16T11:30:39.861Z,0.80
2024-03-16T11:33:15.075Z,0.90
2024-03-16T11:35:41.307Z,0.60
2024-03-16T11:38:07.950Z,0.70
2024-03-16T11:40:33.963Z,1.00
2024-03-16T11:43:02.742Z,1.02
2024-03-16T11:45:30.734Z,0.60
2024-03-16T11:47:56.683Z,1.63
2024-03-16T11:50:22.661Z,2.60
2024-03-16T11:52:48.563Z,2.75
2024-03-16T11:55:14.486Z,2.35
2024-03-16T11:57:40.555Z,4.28
2024-03-16T12:00:08.137Z,2.00
2024-03-16T12:02:38.473Z,1.30
2024-03-16T12:05:05.660Z,1.10
2024-03-16T12:07:31.738Z,1.70
2024-03-16T12:09:57.712Z,1.60
2024-03-16T12:12:24.790Z,1.42
2024-03-16T12:15:12.150Z,1.08
2024-03-16T12:17:38.943Z,1.60
2024-03-16T12:20:09.481Z,1.60
2024-03-16T12:22:35.643Z,1.58
2024-03-16T12:25:01.847Z,1.75
2024-03-16T12:27:28.124Z,1.23
2024-03-16T12:30:00.324Z,1.50
2024-03-16T12:34:52.819Z,1.08
2024-03-16T12:37:18.798Z,1.10
2024-03-16T12:39:44.704Z,1.40
2024-03-16T12:42:10.622Z,1.02
2024-03-16T12:44:36.547Z,1.30
2024-03-16T12:47:02.944Z,1.45
2024-03-16T12:49:28.872Z,1.42
2024-03-16T12:51:55.569Z,1.13
2024-03-16T12:54:22.818Z,0.93
2024-03-16T12:56:49.305Z,1.05
2024-03-16T12:59:15.369Z,0.98
2024-03-16T13:01:41.515Z,0.90
2024-03-16T13:04:08.007Z,1.00
2024-03-16T13:06:34.024Z,1.08
2024-03-16T13:09:01.422Z,0.95
2024-03-16T13:11:27.491Z,0.80
2024-03-16T13:13:53.375Z,1.20
2024-03-16T13:16:19.442Z,1.20
2024-03-16T13:18:45.312Z,0.90
2024-03-16T13:21:12.549Z,1.10
2024-03-16T13:23:38.734Z,0.90
2024-03-16T13:26:05.636Z,1.17
2024-03-16T13:28:31.663Z,1.00
2024-03-16T13:30:57.889Z,0.90
2024-03-16T13:33:23.768Z,1.00
2024-03-16T13:35:49.821Z,1.10
2024-03-16T13:38:15.779Z,1.10
2024-03-16T13:40:42.369Z,0.75
2024-03-16T13:43:09.129Z,1.02
2024-03-16T13:45:40.481Z,0.95
2024-03-16T13:48:06.603Z,1.00
2024-03-16T13:50:32.508Z,0.80
2024-03-16T13:53:01.312Z,0.95
2024-03-16T13:55:27.296Z,0.77
2024-03-16T13:57:53.357Z,1.20
2024-03-16T14:00:20.114Z,0.90
2024-03-16T14:02:46.245Z,1.00
2024-03-16T14:05:12.423Z,1.05
2024-03-16T14:07:38.566Z,0.88
2024-03-16T14:10:05.452Z,0.70
2024-03-16T14:12:31.507Z,1.00
2024-03-16T14:14:57.653Z,1.20
2024-03-16T14:17:24.315Z,1.10
2024-03-16T14:19:50.692Z,0.90
2024-03-16T14:22:17.247Z,1.15
2024-03-16T14:24:43.261Z,1.23
2024-03-16T14:27:09.375Z,1.35
2024-03-16T14:29:35.301Z,1.38
2024-03-16T14:32:01.271Z,1.38
2024-03-16T14:34:27.756Z,1.23
2024-03-16T14:36:53.737Z,1.55
2024-03-16T14:39:19.742Z,1.45
2024-03-16T14:41:45.839Z,1.45
2024-03-16T14:44:12.668Z,1.42
2024-03-16T14:46:38.632Z,1.23
2024-03-16T14:49:04.709Z,1.20
2024-03-16T14:51:32.370Z,1.30
2024-03-16T14:53:58.380Z,1.20
2024-03-16T14:56:24.604Z,1.10
2024-03-16T14:58:50.606Z,1.20
2024-03-16T15:01:16.687Z,1.90
2024-03-16T15:03:42.693Z,1.30
2024-03-16T15:06:08.909Z,1.30
2024-03-16T15:08:35.537Z,1.00
2024-03-16T15:11:01.573Z,1.00
2024-03-16T15:13:27.491Z,1.40
2024-03-16T15:15:53.634Z,1.65
2024-03-16T15:18:19.605Z,1.50
2024-03-16T15:20:45.725Z,1.52
2024-03-16T15:23:11.723Z,1.10
2024-03-16T15:25:38.383Z,1.65
2024-03-16T15:28:04.914Z,1.80
2024-03-16T15:30:30.819Z,1.20
2024-03-16T15:32:56.758Z,1.50
2024-03-16T15:35:22.765Z,1.30
2024-03-16T15:37:48.652Z,1.30
2024-03-16T15:40:14.711Z,1.17
2024-03-16T15:42:41.459Z,1.05
2024-03-16T15:45:07.969Z,1.50
2024-03-16T15:47:33.881Z,1.13
2024-03-16T15:50:00.209Z,1.20
2024-03-16T15:52:26.369Z,1.40
2024-03-16T15:54:52.471Z,1.08
2024-03-16T15:57:18.411Z,1.60
2024-03-16T15:59:45.160Z,1.52
2024-03-16T16:02:11.025Z,0.88
2024-03-16T16:04:37.114Z,1.15
2024-03-16T16:07:03.302Z,1.10
2024-03-16T16:09:29.396Z,1.33
2024-03-16T16:11:55.369Z,1.23
2024-03-16T16:14:21.398Z,1.13
2024-03-16T16:16:48.283Z,1.17
2024-03-16T16:19:14.299Z,1.25
2024-03-16T16:21:40.292Z,1.20
2024-03-16T16:24:06.379Z,1.50
2024-03-16T16:26:32.492Z,1.92
2024-03-16T16:28:58.459Z,1.67
2024-03-16T16:31:24.413Z,1.50
2024-03-16T16:33:51.057Z,1.30
2024-03-16T16:36:17.011Z,1.70
2024-03-16T16:38:43.084Z,1.20
2024-03-16T16:41:09.340Z,0.93
2024-03-16T16:43:35.776Z,1.40
2024-03-16T16:46:01.754Z,1.30
2024-03-16T16:48:27.743Z,1.65
2024-03-16T16:50:54.283Z,1.42
2024-03-16T16:53:20.584Z,1.35
2024-03-16T16:55:46.659Z,1.20
2024-03-16T16:58:12.847Z,1.40
2024-03-16T17:00:38.722Z,1.13
2024-03-16T17:03:04.709Z,1.02
2024-03-16T17:05:30.646Z,1.35
2024-03-16T17:07:57.291Z,1.17
2024-03-16T17:10:23.243Z,1.27
2024-03-16T17:12:49.261Z,1.42
2024-03-16T17:15:15.386Z,1.27
2024-03-16T17:17:41.608Z,1.40
2024-03-16T17:20:08.218Z,1.38
2024-03-16T17:22:34.189Z,1.23
2024-03-16T17:25:00.852Z,1.42
2024-03-16T17:27:27.070Z,1.65
2024-03-16T17:29:53.209Z,1.38
2024-03-16T17:32:19.258Z,1.42
2024-03-16T17:34:45.190Z,2.03
2024-03-16T17:37:11.204Z,1.40
2024-03-16T17:39:37.175Z,1.80
2024-03-16T17:42:04.397Z,1.63
2024-03-16T17:44:30.274Z,1.85
2024-03-16T17:46:56.282Z,1.40
2024-03-16T17:49:22.237Z,1.38
2024-03-16T17:51:48.398Z,1.83
2024-03-16T17:54:14.325Z,1.90
2024-03-16T17:56:40.264Z,1.83
2024-03-16T17:59:06.816Z,1.80
2024-03-16T18:01:32.848Z,1.83
2024-03-16T18:03:58.810Z,1.88
2024-03-16T18:06:25.002Z,1.40
2024-03-16T18:08:51.096Z,1.40
2024-03-16T18:11:17.153Z,1.70
2024-03-16T18:13:43.162Z,1.75
2024-03-16T18:16:09.741Z,1.65
2024-03-16T18:18:35.663Z,1.58
2024-03-16T18:21:01.659Z,1.50
2024-03-16T18:23:28.227Z,1.60
2024-03-16T18:25:54.256Z,1.50
2024-03-16T18:28:20.185Z,1.70
2024-03-16T18:30:46.248Z,2.28
2024-03-16T18:33:12.367Z,1.90
2024-03-16T18:35:38.440Z,1.80
2024-03-16T18:38:04.374Z,1.63
2024-03-16T18:40:31.081Z,1.83
2024-03-16T18:42:57.043Z,1.80
2024-03-16T18:45:23.019Z,1.83
2024-03-16T18:47:48.976Z,1.73
2024-03-16T18:50:15.416Z,2.25
2024-03-16T18:52:41.317Z,1.90
2024-03-16T18:55:07.796Z,2.40
2024-03-16T18:57:34.650Z,1.98
2024-03-16T19:00:00.712Z,2.40
2024-03-16T19:02:26.643Z,2.30
2024-03-16T19:04:52.654Z,1.90
2024-03-16T19:07:18.599Z,2.17
2024-03-16T19:09:44.661Z,2.50
2024-03-16T19:12:10.654Z,1.80
2024-03-16T19:14:37.462Z,2.13
2024-03-16T19:17:03.524Z,2.05
2024-03-16T19:19:29.570Z,2.15
2024-03-16T19:21:55.605Z,2.65
2024-03-16T19:24:21.667Z,2.20
2024-03-16T19:26:47.683Z,2.33
2024-03-16T19:29:13.787Z,1.98
2024-03-16T19:31:40.363Z,1.90
2024-03-16T19:34:06.303Z,2.03
2024-03-16T19:36:32.234Z,1.95
2024-03-16T19:38:58.283Z,2.47
2024-03-16T19:41:24.196Z,1.65
2024-03-16T19:43:50.245Z,2.33
2024-03-16T19:46:16.265Z,1.95
2024-03-16T19:48:42.860Z,2.10
2024-03-16T19:51:08.773Z,1.73
2024-03-16T19:53:34.783Z,1.65
2024-03-16T19:56:00.700Z,2.00
2024-03-16T19:58:28.715Z,2.10
2024-03-16T20:00:56.060Z,1.85
2024-03-16T20:03:22.100Z,1.90
2024-03-16T20:05:48.672Z,2.28
2024-03-16T20:08:14.725Z,2.40
2024-03-16T20:10:40.669Z,2.08
2024-03-16T20:13:06.648Z,2.40
2024-03-16T20:15:32.537Z,2.30
2024-03-16T20:17:58.561Z,2.15
2024-03-16T20:20:24.532Z,2.08
2024-03-16T20:22:51.145Z,2.10
2024-03-16T20:25:17.265Z,2.50
2024-03-16T20:27:43.194Z,2.90
2024-03-16T20:30:10.384Z,3.03
2024-03-16T20:32:36.569Z,3.00
2024-03-16T20:35:03.088Z,3.25
2024-03-16T20:37:29.151Z,2.92
2024-03-16T20:39:55.707Z,2.95
2024-03-16T20:42:21.711Z,3.03
2024-03-16T20:44:47.637Z,2.78
2024-03-16T20:47:13.571Z,2.65
2024-03-16T20:49:39.629Z,2.83
2024-03-16T20:52:05.873Z,2.58
2024-03-16T20:54:31.744Z,2.53
2024-03-16T20:56:58.370Z,2.58
2024-03-16T20:59:24.335Z,2.85
2024-03-16T21:01:50.293Z,2.90
2024-03-16T21:04:16.393Z,2.33
2024-03-16T21:06:42.446Z,2.95
2024-03-16T21:09:08.340Z,3.20
2024-03-16T21:11:34.345Z,2.78
2024-03-16T21:14:00.945Z,2.67
2024-03-16T21:16:26.947Z,2.60
2024-03-16T21:18:52.886Z,3.10
2024-03-16T21:21:18.941Z,3.00
2024-03-16T21:23:44.825Z,2.95
2024-03-16T21:26:11.028Z,3.28
2024-03-16T21:28:37.823Z,3.42
2024-03-16T21:31:04.570Z,3.33
2024-03-16T21:33:30.458Z,3.40
2024-03-16T21:35:56.516Z,3.88
2024-03-16T21:38:22.761Z,3.95
2024-03-16T21:40:49.664Z,3.83
2024-03-16T21:43:15.744Z,3.60
2024-03-16T21:45:41.868Z,4.32
2024-03-16T21:48:08.521Z,4.15
2024-03-16T21:50:34.572Z,4.55
2024-03-16T21:53:00.549Z,4.90
2024-03-16T21:55:26.523Z,4.65
2024-03-16T21:57:52.501Z,4.72
2024-03-16T22:00:18.480Z,4.78
2024-03-16T22:02:45.949Z,5.00
2024-03-16T22:05:13.617Z,4.82
2024-03-16T22:07:40.721Z,4.60
2024-03-16T22:10:07.510Z,5.10
2024-03-16T22:12:33.505Z,4.90
2024-03-16T22:14:59.453Z,4.75
2024-03-16T22:17:25.387Z,4.88
2024-03-16T22:19:51.570Z,5.20
2024-03-16T22:22:18.682Z,5.57
2024-03-16T22:24:45.084Z,4.93
2024-03-16T22:27:11.047Z,5.10
2024-03-16T22:29:36.975Z,5.20
2024-03-16T22:32:03.194Z,7.07
2024-03-16T22:34:29.160Z,8.13
2024-03-16T22:36:55.107Z,8.60
2024-03-16T22:39:21.730Z,8.73
2024-03-16T22:41:47.741Z,7.75
2024-03-16T22:44:13.853Z,7.47
2024-03-16T22:46:39.739Z,7.63
2024-03-16T22:49:05.740Z,7.80
2024-03-16T22:51:31.654Z,8.15
2024-03-16T22:53:57.606Z,8.85
2024-03-16T22:56:24.689Z,8.07
2024-03-16T22:58:50.711Z,7.72
2024-03-16T23:01:16.648Z,8.25
2024-03-16T23:03:42.718Z,8.57
2024-03-16T23:06:08.810Z,8.43
2024-03-16T23:08:35.122Z,8.10
2024-03-16T23:11:01.099Z,7.78
2024-03-16T23:13:27.689Z,7.68
2024-03-16T23:15:53.622Z,7.53
2024-03-16T23:18:19.637Z,7.55
2024-03-16T23:20:45.603Z,7.68
2024-03-16T23:23:11.597Z,8.00
2024-03-16T23:25:37.518Z,7.05
2024-03-16T23:28:03.817Z,7.05
2024-03-16T23:30:30.375Z,7.32
2024-03-16T23:32:56.367Z,7.72
2024-03-16T23:35:22.283Z,7.68
2024-03-16T23:37:48.259Z,7.28
2024-03-16T23:40:14.153Z,7.35
2024-03-16T23:42:40.314Z,7.35
2024-03-16T23:45:07.237Z,7.85
2024-03-16T23:47:33.842Z,9.57
2024-03-16T23:49:59.813Z,19.00
2024-03-16T23:52:25.754Z,10.70
2024-03-16T23:54:51.695Z,8.25
2024-03-16T23:57:17.716Z,8.20
2024-03-16T23:59:43.639Z,7.63
